Time;durP1;ratioP1;P1;durP2;ratioP2;P2;SDS_P1;SDS_P2;PMS_P1;PMS_P2;Temp;Humidity;BMP_temperature;BMP_pressure;BME280_temperature;BME280_humidity;BME280_pressure;Samples;Min_cycle;Max_cycle;Signal;HPM_P1;HPM_P2
2021/06/20 00:00:15;;;;;;;2.22;1.40;;;23.60;99.90;;;;;;12387286;28;20049;-39
2021/06/20 00:06:27;;;;;;;4.93;1.92;;;23.70;99.90;;;;;;12391335;28;20046;-41
2021/06/20 00:12:29;;;;;;;2.95;1.70;;;23.60;99.90;;;;;;12395451;28;20051;-39
2021/06/20 00:18:31;;;;;;;4.00;1.48;;;23.60;99.90;;;;;;12390380;28;20093;-39
2021/06/20 00:24:33;;;;;;;3.80;1.73;;;23.60;99.90;;;;;;12392269;28;20053;-39
2021/06/20 00:30:36;;;;;;;5.03;1.50;;;23.50;99.90;;;;;;12393166;28;20077;-39
2021/06/20 00:36:38;;;;;;;;;;;23.70;99.90;;;;;;12395912;28;20095;-39
2021/06/20 00:42:40;;;;;;;4.20;1.50;;;23.80;99.90;;;;;;12394785;28;20063;-40
2021/06/20 00:48:42;;;;;;;2.83;1.55;;;23.90;99.90;;;;;;12392760;28;20725;-39
2021/06/20 00:54:47;;;;;;;3.80;1.65;;;23.80;99.90;;;;;;12399977;28;20609;-39
2021/06/20 01:00:49;;;;;;;2.35;1.33;;;23.80;99.90;;;;;;12398164;28;20046;-40
2021/06/20 01:06:51;;;;;;;4.85;1.60;;;23.70;99.90;;;;;;12401004;28;20054;-39
2021/06/20 01:12:53;;;;;;;4.25;1.77;;;23.70;99.90;;;;;;12399358;28;20042;-40
2021/06/20 01:18:56;;;;;;;3.40;1.60;;;23.60;99.90;;;;;;12395723;28;20096;-40
2021/06/20 01:24:59;;;;;;;;;;;23.50;99.90;;;;;;12396646;28;20044;-39
2021/06/20 01:31:01;;;;;;;4.47;1.60;;;23.30;99.90;;;;;;12393023;28;19930;-41
2021/06/20 01:37:08;;;;;;;3.47;1.67;;;23.30;99.90;;;;;;12402821;28;20050;-40
2021/06/20 01:43:10;;;;;;;10.57;1.83;;;23.20;99.90;;;;;;12391630;28;20127;-39
2021/06/20 01:49:12;;;;;;;7.20;2.03;;;21.40;99.90;;;;;;12390109;28;20576;-42
2021/06/20 01:55:16;;;;;;;19.58;3.10;;;20.10;99.90;;;;;;12382719;28;20085;-40
2021/06/20 02:01:18;;;;;;;16.13;2.60;;;19.80;99.90;;;;;;12395717;28;20065;-40
2021/06/20 02:07:24;;;;;;;13.40;3.00;;;19.70;99.90;;;;;;12387779;28;20085;-40
2021/06/20 02:13:27;;;;;;;10.55;2.45;;;19.40;99.90;;;;;;12378342;28;20544;-39
2021/06/20 02:19:29;;;;;;;10.05;3.00;;;19.30;99.90;;;;;;12397021;28;20053;-39
2021/06/20 02:25:32;;;;;;;6.70;1.90;;;19.10;99.90;;;;;;12389392;28;20092;-40
2021/06/20 02:31:33;;;;;;;6.07;1.83;;;19.10;99.90;;;;;;12394864;28;20050;-39
2021/06/20 02:37:36;;;;;;;6.15;1.60;;;19.20;99.90;;;;;;12397603;28;20092;-40
2021/06/20 02:43:37;;;;;;;6.18;1.63;;;19.20;99.90;;;;;;12393815;28;20096;-39
2021/06/20 02:49:40;;;;;;;6.60;1.40;;;19.20;99.90;;;;;;12394888;28;20050;-39
2021/06/20 02:55:44;;;;;;;6.20;1.77;;;19.20;99.90;;;;;;12387765;28;20054;-41
2021/06/20 03:01:46;;;;;;;5.25;1.50;;;19.20;99.90;;;;;;12386966;28;20042;-39
2021/06/20 03:07:48;;;;;;;10.38;1.85;;;19.30;99.90;;;;;;12389735;28;20069;-40
2021/06/20 03:13:50;;;;;;;18.33;2.00;;;19.30;99.90;;;;;;12381482;28;20042;-40
2021/06/20 03:19:55;;;;;;;8.10;1.80;;;19.50;99.90;;;;;;12397774;28;20045;-40
2021/06/20 03:25:57;;;;;;;6.18;1.73;;;19.30;99.90;;;;;;12388383;28;20100;-39
2021/06/20 03:32:00;;;;;;;13.13;2.58;;;19.20;99.90;;;;;;12394565;28;20046;-39
2021/06/20 03:38:02;;;;;;;7.68;2.40;;;19.20;99.90;;;;;;12384640;28;20046;-39
2021/06/20 03:44:06;;;;;;;6.32;1.92;;;19.10;99.90;;;;;;12392720;28;20128;-39
2021/06/20 03:50:09;;;;;;;6.03;1.92;;;19.00;99.90;;;;;;12391849;28;20061;-39
2021/06/20 03:56:11;;;;;;;7.50;1.80;;;19.00;99.90;;;;;;12387560;28;20056;-39
2021/06/20 04:02:13;;;;;;;8.68;1.60;;;19.10;99.90;;;;;;12388624;28;20656;-39
2021/06/20 04:08:18;;;;;;;6.57;1.70;;;19.10;99.90;;;;;;12381116;28;20050;-39
2021/06/20 04:14:20;;;;;;;6.97;1.48;;;19.00;99.90;;;;;;12380911;28;20050;-39
2021/06/20 04:20:22;;;;;;;3.60;1.40;;;19.00;99.90;;;;;;12392457;28;20129;-39
2021/06/20 04:26:25;;;;;;;6.63;1.40;;;18.90;99.90;;;;;;12377495;28;20259;-39
2021/06/20 04:32:27;;;;;;;4.97;1.33;;;18.90;99.90;;;;;;12389651;28;20042;-39
2021/06/20 04:38:29;;;;;;;5.55;1.50;;;18.80;99.90;;;;;;12389797;28;20108;-39
2021/06/20 04:44:43;;;;;;;7.53;1.70;;;18.90;99.90;;;;;;12388213;28;20051;-39
2021/06/20 04:50:45;;;;;;;7.28;1.83;;;18.90;99.90;;;;;;12385506;28;20152;-39
2021/06/20 04:56:47;;;;;;;5.82;1.48;;;19.00;99.90;;;;;;12389002;28;20050;-40
2021/06/20 05:02:49;;;;;;;8.07;2.33;;;19.00;99.90;;;;;;12387081;28;20121;-38
2021/06/20 05:08:51;;;;;;;8.45;2.10;;;19.00;99.90;;;;;;12381191;28;20746;-39
2021/06/20 05:14:53;;;;;;;9.45;2.35;;;19.10;99.90;;;;;;12386695;28;20042;-39
2021/06/20 05:20:54;;;;;;;12.25;2.30;;;19.20;99.90;;;;;;12400643;28;20042;-40
2021/06/20 05:26:57;;;;;;;6.20;2.17;;;19.30;99.90;;;;;;12393384;28;20054;-39
2021/06/20 05:32:59;;;;;;;7.30;2.67;;;19.50;99.90;;;;;;12397130;28;20050;-39
2021/06/20 05:39:00;;;;;;;16.08;2.78;;;19.60;99.90;;;;;;12394633;28;20128;-39
2021/06/20 05:45:03;;;;;;;12.65;2.67;;;19.70;99.90;;;;;;12392502;28;20058;-40
2021/06/20 05:51:06;;;;;;;11.10;3.47;;;19.80;99.90;;;;;;12390171;28;20050;-39
2021/06/20 05:57:08;;;;;;;9.80;3.30;;;19.90;99.90;;;;;;12388002;28;20053;-39
2021/06/20 06:03:09;;;;;;;7.93;2.92;;;19.90;99.90;;;;;;12383102;28;20149;-39
2021/06/20 06:09:11;;;;;;;15.20;4.05;;;20.10;99.90;;;;;;12386792;28;20053;-39
2021/06/20 06:15:14;;;;;;;8.82;3.78;;;20.20;99.90;;;;;;12390875;28;20548;-39
2021/06/20 06:21:16;;;;;;;10.00;4.10;;;20.40;99.90;;;;;;12396593;28;20046;-39
2021/06/20 06:27:18;;;;;;;9.68;3.88;;;20.40;99.90;;;;;;12388399;28;20672;-39
2021/06/20 06:33:21;;;;;;;12.52;4.40;;;20.60;99.90;;;;;;12393976;28;20042;-39
2021/06/20 06:39:23;;;;;;;11.97;4.47;;;20.50;99.90;;;;;;12392937;28;20646;-40
2021/06/20 06:45:25;;;;;;;9.13;3.53;;;20.50;99.90;;;;;;12384195;28;20165;-39
2021/06/20 06:51:27;;;;;;;9.02;3.85;;;20.60;99.90;;;;;;12385847;28;20050;-39
2021/06/20 06:57:29;;;;;;;8.05;3.65;;;20.80;99.90;;;;;;12395885;28;20097;-40
2021/06/20 07:03:30;;;;;;;6.40;4.05;;;20.90;99.90;;;;;;12384529;28;20054;-40
2021/06/20 07:09:32;;;;;;;7.57;3.65;;;20.90;99.90;;;;;;12390503;28;20080;-39
2021/06/20 07:15:34;;;;;;;7.32;3.67;;;20.80;99.90;;;;;;12389449;28;20137;-39
2021/06/20 07:21:36;;;;;;;7.93;3.55;;;20.80;99.90;;;;;;12385416;28;20057;-39
2021/06/20 07:27:38;;;;;;;9.18;3.22;;;20.80;99.90;;;;;;12393997;28;20124;-39
2021/06/20 07:33:40;;;;;;;5.70;2.90;;;20.80;99.90;;;;;;12384604;28;20050;-39
2021/06/20 07:39:42;;;;;;;6.97;2.90;;;20.80;99.90;;;;;;12387679;28;20054;-39
2021/06/20 07:45:43;;;;;;;6.22;3.40;;;21.00;99.90;;;;;;12383803;28;20141;-39
2021/06/20 07:51:46;;;;;;;5.03;3.00;;;21.10;99.90;;;;;;12383718;28;20426;-40
2021/06/20 07:57:48;;;;;;;6.90;3.00;;;21.20;99.90;;;;;;12380602;28;20084;-39
2021/06/20 08:03:50;;;;;;;6.40;2.53;;;21.20;99.90;;;;;;12387605;28;20137;-39
2021/06/20 08:09:57;;;;;;;7.18;2.63;;;21.40;99.90;;;;;;12380651;28;20176;-39
2021/06/20 08:15:58;;;;;;;3.75;2.33;;;21.70;99.90;;;;;;12391254;28;20050;-40
2021/06/20 08:22:00;;;;;;;7.15;2.50;;;21.90;99.90;;;;;;12388739;28;20058;-39
2021/06/20 08:28:02;;;;;;;4.70;2.17;;;22.20;99.90;;;;;;12387181;28;21031;-39
2021/06/20 08:34:07;;;;;;;5.18;2.35;;;22.40;99.90;;;;;;12380382;28;20104;-40
2021/06/20 08:40:09;;;;;;;5.50;2.80;;;22.40;99.90;;;;;;12389503;28;21056;-40
2021/06/20 08:46:11;;;;;;;5.72;2.50;;;22.10;99.90;;;;;;12376574;28;20054;-39
2021/06/20 08:52:13;;;;;;;6.57;3.20;;;22.30;99.90;;;;;;12387915;28;20498;-40
2021/06/20 08:58:35;;;;;;;4.13;2.70;;;22.60;99.90;;;;;;12391589;28;20087;-40
2021/06/20 09:04:37;;;;;;;6.35;2.85;;;22.20;99.90;;;;;;12403830;28;20145;-42
2021/06/20 09:10:38;;;;;;;5.57;2.40;;;22.10;99.90;;;;;;12390722;28;21103;-39
2021/06/20 09:16:52;;;;;;;7.68;2.80;;;22.50;99.90;;;;;;12405421;28;20042;-41
2021/06/20 09:22:56;;;;;;;7.82;2.75;;;23.00;99.90;;;;;;12396041;28;20160;-39
2021/06/20 09:28:58;;;;;;;7.03;2.50;;;23.20;99.90;;;;;;12401890;28;20042;-40
2021/06/20 09:35:00;;;;;;;9.30;2.78;;;23.70;99.90;;;;;;12391009;28;20041;-40
2021/06/20 09:41:09;;;;;;;6.83;2.40;;;23.90;99.90;;;;;;12398693;28;20561;-39
2021/06/20 09:47:14;;;;;;;3.88;2.25;;;24.00;99.90;;;;;;12388840;28;20168;-41
2021/06/20 09:53:29;;;;;;;5.93;2.10;;;23.50;99.90;;;;;;12394391;28;20517;-39
2021/06/20 09:59:33;;;;;;;5.40;2.20;;;23.10;99.90;;;;;;12390473;28;20073;-39
2021/06/20 10:05:36;;;;;;;7.40;2.40;;;23.20;99.90;;;;;;12381703;28;20133;-40
2021/06/20 10:11:38;;;;;;;7.43;2.10;;;24.00;99.90;;;;;;12377331;28;20058;-39
2021/06/20 10:17:43;;;;;;;5.80;2.08;;;24.00;99.90;;;;;;12392609;28;20045;-40
2021/06/20 10:23:46;;;;;;;6.13;2.50;;;24.40;99.90;;;;;;12391206;28;20133;-43
2021/06/20 10:29:54;;;;;;;6.17;1.70;;;24.60;99.90;;;;;;12390806;28;20141;-40
2021/06/20 10:36:06;;;;;;;4.45;1.80;;;24.90;99.90;;;;;;12384615;28;20046;-40
2021/06/20 10:42:10;;;;;;;4.90;1.70;;;24.80;99.90;;;;;;12391648;28;20057;-39
2021/06/20 10:48:15;;;;;;;3.28;1.40;;;24.40;99.90;;;;;;12381175;28;20454;-40
2021/06/20 10:54:23;;;;;;;2.42;1.50;;;24.70;99.90;;;;;;12389155;28;20103;-39
2021/06/20 11:00:33;;;;;;;5.50;1.60;;;25.00;99.90;;;;;;12384967;28;20066;-40
2021/06/20 11:06:35;;;;;;;3.13;1.40;;;25.10;99.90;;;;;;12395602;28;20054;-40
2021/06/20 11:12:37;;;;;;;6.75;1.40;;;25.40;99.90;;;;;;12372630;28;20050;-39
2021/06/20 11:18:39;;;;;;;3.03;1.23;;;25.40;99.90;;;;;;12385096;28;20061;-41
2021/06/20 11:24:48;;;;;;;2.35;1.20;;;25.40;99.90;;;;;;12385146;28;20061;-41
2021/06/20 11:30:49;;;;;;;3.00;1.17;;;25.70;99.90;;;;;;12382318;28;20080;-40
2021/06/20 11:36:51;;;;;;;3.97;2.97;;;26.00;99.90;;;;;;12378375;28;20077;-41
2021/06/20 11:42:57;;;;;;;4.93;1.85;;;25.50;99.90;;;;;;12388572;28;20091;-40
2021/06/20 11:49:05;;;;;;;3.03;1.25;;;25.00;99.90;;;;;;12381131;28;20129;-41
2021/06/20 11:55:27;;;;;;;3.88;1.50;;;25.00;99.90;;;;;;12396866;28;20116;-40
2021/06/20 12:01:47;;;;;;;3.80;1.52;;;25.80;99.90;;;;;;12386388;28;20099;-40
2021/06/20 12:07:52;;;;;;;4.15;1.40;;;26.20;99.90;;;;;;12374552;28;20081;-39
2021/06/20 12:13:54;;;;;;;3.90;1.30;;;26.70;99.90;;;;;;12387081;28;20177;-41
2021/06/20 12:19:56;;;;;;;4.30;1.10;;;26.50;99.90;;;;;;12398483;28;20540;-39
2021/06/20 12:25:58;;;;;;;2.23;1.20;;;25.60;99.90;;;;;;12392746;28;20180;-40
2021/06/20 12:32:12;;;;;;;2.08;1.20;;;25.00;99.90;;;;;;12403522;28;20111;-42
2021/06/20 12:38:16;;;;;;;2.85;1.30;;;24.60;99.90;;;;;;12403879;28;20410;-39
2021/06/20 12:44:18;;;;;;;3.38;1.10;;;25.60;99.90;;;;;;12400152;28;20151;-40
2021/06/20 12:50:32;;;;;;;2.17;1.20;;;25.90;99.90;;;;;;12405891;28;20061;-41
2021/06/20 12:56:35;;;;;;;5.32;1.10;;;25.80;99.90;;;;;;12399354;28;20057;-42
2021/06/20 13:02:37;;;;;;;2.85;1.27;;;26.40;99.90;;;;;;12406180;28;20046;-41
2021/06/20 13:08:39;;;;;;;2.72;1.23;;;26.90;99.90;;;;;;12402167;28;20050;-40
2021/06/20 13:14:41;;;;;;;2.05;0.90;;;27.00;99.90;;;;;;12400076;28;20132;-39
2021/06/20 13:20:43;;;;;;;1.52;0.88;;;27.50;99.90;;;;;;12410046;28;20091;-41
2021/06/20 13:26:45;;;;;;;3.70;1.08;;;27.60;99.90;;;;;;12403347;28;20141;-40
2021/06/20 13:32:48;;;;;;;2.78;1.42;;;27.80;99.90;;;;;;12411230;28;20149;-39
2021/06/20 13:38:50;;;;;;;4.22;1.35;;;27.80;99.90;;;;;;12400187;28;20042;-40
2021/06/20 13:44:52;;;;;;;2.03;1.20;;;27.50;99.90;;;;;;12389639;28;20088;-40
2021/06/20 13:50:55;;;;;;;2.10;1.03;;;27.80;99.90;;;;;;12398260;28;21241;-39
2021/06/20 13:56:57;;;;;;;4.13;1.10;;;27.80;99.90;;;;;;12396686;28;20046;-40
2021/06/20 14:02:59;;;;;;;2.65;1.10;;;27.90;99.90;;;;;;12390361;28;20137;-40
2021/06/20 14:09:02;;;;;;;2.17;1.10;;;28.20;99.90;;;;;;12397351;28;20060;-40
2021/06/20 14:15:05;;;;;;;1.73;0.90;;;28.40;99.90;;;;;;12389977;28;20120;-40
2021/06/20 14:21:07;;;;;;;3.22;0.93;;;27.60;99.90;;;;;;12393946;28;20046;-40
2021/06/20 14:27:09;;;;;;;3.60;1.10;;;27.00;99.90;;;;;;12391484;28;20066;-39
2021/06/20 14:33:11;;;;;;;2.47;1.20;;;26.50;99.90;;;;;;12395256;28;20498;-40
2021/06/20 14:39:13;;;;;;;4.20;1.20;;;25.90;99.90;;;;;;12390191;28;20137;-40
2021/06/20 14:45:15;;;;;;;2.08;1.02;;;25.80;99.90;;;;;;12388644;28;20157;-46
2021/06/20 14:51:17;;;;;;;;;;;26.70;99.90;;;;;;12390269;28;20089;-40
2021/06/20 14:57:21;;;;;;;3.15;1.20;;;26.90;99.90;;;;;;12391707;28;19975;-41
2021/06/20 15:03:23;;;;;;;2.83;0.90;;;26.90;99.90;;;;;;12386840;28;20137;-41
2021/06/20 15:09:25;;;;;;;1.95;1.13;;;26.40;99.90;;;;;;12392061;28;20054;-41
2021/06/20 15:15:27;;;;;;;2.17;0.95;;;26.10;99.90;;;;;;12386691;28;20050;-40
2021/06/20 15:21:29;;;;;;;2.43;1.00;;;26.70;99.90;;;;;;12391399;28;20095;-40
2021/06/20 15:27:31;;;;;;;2.38;1.00;;;27.30;99.90;;;;;;12385251;28;20347;-42
2021/06/20 15:33:32;;;;;;;2.23;1.00;;;27.60;99.90;;;;;;12381315;28;20089;-40
2021/06/20 15:39:34;;;;;;;2.87;1.00;;;28.00;99.90;;;;;;12390757;28;20100;-41
2021/06/20 15:45:37;;;;;;;1.93;1.27;;;28.10;99.90;;;;;;12381158;28;20057;-40
2021/06/20 15:51:40;;;;;;;;;;;28.30;99.90;;;;;;12388768;28;20053;-40
2021/06/20 15:57:44;;;;;;;1.85;1.00;;;28.10;99.90;;;;;;12382657;28;20014;-40
2021/06/20 16:03:46;;;;;;;1.83;0.90;;;27.90;99.90;;;;;;12388133;28;20112;-40
2021/06/20 16:09:48;;;;;;;2.10;0.90;;;27.60;99.90;;;;;;12390722;28;20141;-40
2021/06/20 16:15:50;;;;;;;1.73;1.07;;;27.40;99.90;;;;;;12386003;28;20133;-43
2021/06/20 16:21:52;;;;;;;1.23;0.90;;;27.20;99.90;;;;;;12382696;28;20092;-40
2021/06/20 16:27:54;;;;;;;1.60;0.93;;;27.00;99.90;;;;;;12383705;28;20081;-41
2021/06/20 16:33:56;;;;;;;4.10;1.10;;;27.10;99.90;;;;;;12388387;28;20046;-40
2021/06/20 16:39:58;;;;;;;1.98;1.00;;;27.60;99.90;;;;;;12392994;28;20329;-41
2021/06/20 16:46:03;;;;;;;1.60;0.90;;;27.80;99.90;;;;;;12375422;28;20050;-41
2021/06/20 16:52:06;;;;;;;1.48;1.13;;;27.40;99.90;;;;;;12385901;28;20057;-41
2021/06/20 16:58:08;;;;;;;4.03;2.20;;;27.20;99.90;;;;;;12392236;28;21219;-40
2021/06/20 17:04:10;;;;;;;2.25;0.85;;;26.80;99.90;;;;;;12371539;28;20349;-39
2021/06/20 17:10:13;;;;;;;1.50;0.98;;;26.50;99.90;;;;;;12382845;28;20631;-40
2021/06/20 17:16:15;;;;;;;1.65;0.98;;;26.70;99.90;;;;;;12395050;28;20161;-39
2021/06/20 17:22:17;;;;;;;1.60;1.00;;;26.80;99.90;;;;;;12387870;28;20046;-39
2021/06/20 17:28:19;;;;;;;1.48;1.10;;;26.80;99.90;;;;;;12390432;28;20052;-39
2021/06/20 17:34:21;;;;;;;2.70;1.03;;;26.80;99.90;;;;;;12388132;28;20080;-40
2021/06/20 17:40:24;;;;;;;2.00;1.15;;;26.80;99.90;;;;;;12387446;28;20054;-40
2021/06/20 17:46:26;;;;;;;3.70;1.10;;;26.50;99.90;;;;;;12389191;28;20082;-40
2021/06/20 17:52:28;;;;;;;3.07;1.00;;;26.70;99.90;;;;;;12392395;28;20056;-41
2021/06/20 17:58:30;;;;;;;1.92;1.13;;;26.80;99.90;;;;;;12391964;28;20058;-40
2021/06/20 18:04:32;;;;;;;3.33;0.90;;;26.90;99.90;;;;;;12394009;28;20449;-40
2021/06/20 18:10:34;;;;;;;2.78;1.48;;;26.50;99.90;;;;;;12394712;28;20042;-40
2021/06/20 18:16:36;;;;;;;3.00;1.42;;;26.20;99.90;;;;;;12370222;28;20050;-40
2021/06/20 18:22:38;;;;;;;2.60;1.20;;;25.70;99.90;;;;;;12386889;28;20133;-39
2021/06/20 18:28:43;;;;;;;3.67;1.33;;;25.40;99.90;;;;;;12394903;28;20806;-39
2021/06/20 18:34:45;;;;;;;4.55;1.30;;;25.20;99.90;;;;;;12384391;28;20441;-42
2021/06/20 18:40:48;;;;;;;2.20;1.10;;;24.80;99.90;;;;;;12385674;28;20046;-39
2021/06/20 18:46:50;;;;;;;3.57;1.20;;;24.60;99.90;;;;;;12377384;28;20148;-39
2021/06/20 18:52:52;;;;;;;1.92;1.30;;;24.50;99.90;;;;;;12386688;28;20050;-40
2021/06/20 18:58:54;;;;;;;3.30;1.50;;;24.20;99.90;;;;;;12382729;28;20054;-39
2021/06/20 19:04:56;;;;;;;2.47;1.25;;;24.20;99.90;;;;;;12376582;28;20656;-40
2021/06/20 19:10:58;;;;;;;3.90;1.90;;;24.00;99.90;;;;;;12386025;28;20107;-39
2021/06/20 19:17:02;;;;;;;3.30;1.58;;;23.80;99.90;;;;;;12371157;28;20103;-40
2021/06/20 19:23:07;;;;;;;3.90;1.58;;;23.70;99.90;;;;;;12380071;28;20077;-40
2021/06/20 19:29:09;;;;;;;2.70;1.85;;;23.60;99.90;;;;;;12384847;28;20808;-39
2021/06/20 19:35:13;;;;;;;3.20;1.85;;;23.60;99.90;;;;;;12371580;28;20053;-40
2021/06/20 19:41:19;;;;;;;4.10;1.80;;;23.40;99.90;;;;;;12389955;28;20050;-39
2021/06/20 19:47:20;;;;;;;3.15;2.40;;;23.20;99.90;;;;;;12374985;28;20054;-40
2021/06/20 19:53:23;;;;;;;5.80;2.60;;;23.10;99.90;;;;;;12383773;28;20141;-40
2021/06/20 19:59:24;;;;;;;5.30;2.92;;;23.00;99.90;;;;;;12391455;28;20507;-39
2021/06/20 20:05:26;;;;;;;6.93;3.72;;;22.90;99.90;;;;;;12378284;28;20066;-39
2021/06/20 20:11:28;;;;;;;4.65;3.83;;;22.60;99.90;;;;;;12390839;28;20065;-40
2021/06/20 20:17:30;;;;;;;4.50;3.88;;;22.30;99.90;;;;;;12390290;28;20092;-40
2021/06/20 20:23:33;;;;;;;7.20;3.70;;;22.40;99.90;;;;;;12387574;28;20431;-39
2021/06/20 20:29:35;;;;;;;6.85;5.00;;;22.30;99.90;;;;;;12380273;28;20449;-39
2021/06/20 20:35:39;;;;;;;9.35;5.38;;;22.20;99.90;;;;;;12390355;28;20053;-39
2021/06/20 20:41:41;;;;;;;;;;;22.00;99.90;;;;;;12390838;28;20878;-39
2021/06/20 20:47:43;;;;;;;7.90;6.05;;;21.80;99.90;;;;;;12391942;28;20043;-39
2021/06/20 20:53:45;;;;;;;9.45;5.88;;;21.70;99.90;;;;;;12404770;28;20447;-39
2021/06/20 20:59:46;;;;;;;9.70;5.90;;;21.60;99.90;;;;;;12395856;28;20136;-40
2021/06/20 21:05:48;;;;;;;8.63;5.30;;;21.70;99.90;;;;;;12392313;28;20046;-39
2021/06/20 21:11:50;;;;;;;7.43;5.55;;;21.70;99.90;;;;;;12389799;28;20145;-39
2021/06/20 21:17:52;;;;;;;6.13;4.95;;;21.70;99.90;;;;;;12394024;28;20145;-39
2021/06/20 21:23:54;;;;;;;5.88;4.70;;;21.60;99.90;;;;;;12397051;28;20048;-39
2021/06/20 21:29:56;;;;;;;7.35;4.13;;;21.40;99.90;;;;;;12398654;28;20049;-40
2021/06/20 21:35:58;;;;;;;12.02;4.47;;;21.40;99.90;;;;;;12382058;28;20141;-39
2021/06/20 21:41:59;;;;;;;8.07;4.32;;;21.30;99.90;;;;;;12399954;28;20527;-40
2021/06/20 21:48:02;;;;;;;8.10;4.35;;;21.30;99.90;;;;;;12397359;28;20064;-43
2021/06/20 21:54:04;;;;;;;5.78;3.63;;;21.20;99.90;;;;;;12389677;28;20108;-39
2021/06/20 22:00:20;;;;;;;4.72;3.50;;;21.20;99.90;;;;;;12392792;28;20124;-39
2021/06/20 22:06:23;;;;;;;4.82;2.80;;;21.00;99.90;;;;;;12390893;28;20057;-39
2021/06/20 22:12:25;;;;;;;4.93;3.30;;;21.00;99.90;;;;;;12395924;28;20461;-40
2021/06/20 22:18:27;;;;;;;5.07;2.92;;;20.80;99.90;;;;;;12399433;28;20046;-39
2021/06/20 22:24:30;;;;;;;4.60;3.25;;;20.80;99.90;;;;;;12384265;28;20073;-39
2021/06/20 22:30:33;;;;;;;5.23;3.00;;;20.80;99.90;;;;;;12394139;28;20085;-39
2021/06/20 22:36:35;;;;;;;5.13;3.13;;;20.80;99.90;;;;;;12396099;28;20055;-40
2021/06/20 22:42:36;;;;;;;5.88;2.72;;;20.70;99.90;;;;;;12392697;28;20629;-40
2021/06/20 22:48:38;;;;;;;5.07;3.00;;;20.60;99.90;;;;;;12394051;28;20135;-40
2021/06/20 22:54:40;;;;;;;6.75;2.85;;;20.60;99.90;;;;;;12388722;28;20075;-40
2021/06/20 23:00:44;;;;;;;5.53;3.15;;;20.40;99.90;;;;;;12394247;28;20713;-39
2021/06/20 23:06:47;;;;;;;8.10;3.30;;;20.40;99.90;;;;;;12387942;28;20058;-40
2021/06/20 23:12:48;;;;;;;6.25;3.33;;;20.40;99.90;;;;;;12384739;28;20057;-39
2021/06/20 23:18:50;;;;;;;6.18;2.85;;;20.20;99.90;;;;;;12393278;28;20050;-39
2021/06/20 23:24:52;;;;;;;7.72;3.00;;;20.10;99.90;;;;;;12394345;28;20417;-40
2021/06/20 23:30:56;;;;;;;10.80;2.78;;;20.10;99.90;;;;;;12399197;28;20052;-40
2021/06/20 23:36:58;;;;;;;6.22;3.00;;;20.10;99.90;;;;;;12389770;28;20152;-39
2021/06/20 23:43:00;;;;;;;8.35;3.00;;;20.00;99.90;;;;;;12380980;28;20050;-40
2021/06/20 23:49:02;;;;;;;7.50;3.00;;;19.90;99.90;;;;;;12391621;28;20357;-39
2021/06/20 23:55:05;;;;;;;8.30;3.30;;;19.80;99.90;;;;;;12382943;28;20088;-39
